sensor_id;sensor_type;location;lat;lon;timestamp;P1;durP1;ratioP1;P2;durP2;ratioP2
19205;SDS011;59358;52.134;5.596;2023-07-20T00:00:08;13.52;;;9.30;;
19205;SDS011;59358;52.134;5.596;2023-07-20T00:02:37;12.80;;;9.02;;
19205;SDS011;59358;52.134;5.596;2023-07-20T00:05:04;12.38;;;9.75;;
19205;SDS011;59358;52.134;5.596;2023-07-20T00:07:32;13.18;;;9.40;;
19205;SDS011;59358;52.134;5.596;2023-07-20T00:09:59;15.80;;;9.27;;
19205;SDS011;59358;52.134;5.596;2023-07-20T00:12:26;9.98;;;7.88;;
19205;SDS011;59358;52.134;5.596;2023-07-20T00:14:54;8.77;;;7.22;;
19205;SDS011;59358;52.134;5.596;2023-07-20T00:17:21;8.85;;;7.93;;
19205;SDS011;59358;52.134;5.596;2023-07-20T00:19:47;9.75;;;7.80;;
19205;SDS011;59358;52.134;5.596;2023-07-20T00:22:14;9.40;;;6.85;;
19205;SDS011;59358;52.134;5.596;2023-07-20T00:24:41;9.38;;;6.88;;
19205;SDS011;59358;52.134;5.596;2023-07-20T00:27:08;8.75;;;6.85;;
19205;SDS011;59358;52.134;5.596;2023-07-20T00:29:35;7.75;;;6.28;;
19205;SDS011;59358;52.134;5.596;2023-07-20T00:32:04;7.00;;;5.88;;
19205;SDS011;59358;52.134;5.596;2023-07-20T00:34:32;5.93;;;5.32;;
19205;SDS011;59358;52.134;5.596;2023-07-20T00:36:59;7.88;;;5.40;;
19205;SDS011;59358;52.134;5.596;2023-07-20T00:39:25;5.30;;;4.80;;
19205;SDS011;59358;52.134;5.596;2023-07-20T00:41:53;4.97;;;4.28;;
19205;SDS011;59358;52.134;5.596;2023-07-20T00:44:20;8.93;;;4.80;;
19205;SDS011;59358;52.134;5.596;2023-07-20T00:46:47;5.45;;;4.95;;
19205;SDS011;59358;52.134;5.596;2023-07-20T00:49:15;5.82;;;5.22;;
19205;SDS011;59358;52.134;5.596;2023-07-20T00:51:46;4.63;;;4.25;;
19205;SDS011;59358;52.134;5.596;2023-07-20T00:54:14;5.38;;;4.88;;
19205;SDS011;59358;52.134;5.596;2023-07-20T00:56:42;5.45;;;4.78;;
19205;SDS011;59358;52.134;5.596;2023-07-20T00:59:09;5.43;;;4.93;;
19205;SDS011;59358;52.134;5.596;2023-07-20T01:01:38;5.35;;;4.68;;
19205;SDS011;59358;52.134;5.596;2023-07-20T01:04:04;6.20;;;5.28;;
19205;SDS011;59358;52.134;5.596;2023-07-20T01:06:35;6.20;;;5.30;;
19205;SDS011;59358;52.134;5.596;2023-07-20T01:09:08;6.32;;;5.10;;
19205;SDS011;59358;52.134;5.596;2023-07-20T01:11:42;7.07;;;5.63;;
19205;SDS011;59358;52.134;5.596;2023-07-20T01:14:15;7.45;;;5.55;;
19205;SDS011;59358;52.134;5.596;2023-07-20T01:16:43;6.53;;;5.93;;
19205;SDS011;59358;52.134;5.596;2023-07-20T01:19:10;8.13;;;6.32;;
19205;SDS011;59358;52.134;5.596;2023-07-20T01:21:41;6.68;;;5.40;;
19205;SDS011;59358;52.134;5.596;2023-07-20T01:24:19;6.05;;;5.45;;
19205;SDS011;59358;52.134;5.596;2023-07-20T01:30:03;6.43;;;5.60;;
19205;SDS011;59358;52.134;5.596;2023-07-20T01:32:52;7.70;;;5.22;;
19205;SDS011;59358;52.134;5.596;2023-07-20T01:35:21;7.30;;;5.28;;
19205;SDS011;59358;52.134;5.596;2023-07-20T01:37:53;5.88;;;5.30;;
19205;SDS011;59358;52.134;5.596;2023-07-20T01:40:21;6.47;;;5.45;;
19205;SDS011;59358;52.134;5.596;2023-07-20T01:42:50;6.53;;;5.93;;
19205;SDS011;59358;52.134;5.596;2023-07-20T01:45:18;7.78;;;6.10;;
19205;SDS011;59358;52.134;5.596;2023-07-20T01:47:45;6.57;;;5.97;;
19205;SDS011;59358;52.134;5.596;2023-07-20T01:50:13;7.43;;;6.72;;
19205;SDS011;59358;52.134;5.596;2023-07-20T01:52:40;8.82;;;7.00;;
19205;SDS011;59358;52.134;5.596;2023-07-20T01:55:08;8.65;;;6.88;;
19205;SDS011;59358;52.134;5.596;2023-07-20T01:57:35;8.82;;;7.55;;
19205;SDS011;59358;52.134;5.596;2023-07-20T02:00:02;8.30;;;7.50;;
19205;SDS011;59358;52.134;5.596;2023-07-20T02:02:29;8.20;;;7.25;;
19205;SDS011;59358;52.134;5.596;2023-07-20T02:04:56;11.27;;;7.28;;
19205;SDS011;59358;52.134;5.596;2023-07-20T02:07:25;8.55;;;7.32;;
19205;SDS011;59358;52.134;5.596;2023-07-20T02:09:52;8.57;;;7.78;;
19205;SDS011;59358;52.134;5.596;2023-07-20T02:12:19;10.38;;;8.18;;
19205;SDS011;59358;52.134;5.596;2023-07-20T02:14:46;8.77;;;7.88;;
19205;SDS011;59358;52.134;5.596;2023-07-20T02:17:12;10.13;;;7.90;;
19205;SDS011;59358;52.134;5.596;2023-07-20T02:19:40;8.70;;;7.90;;
19205;SDS011;59358;52.134;5.596;2023-07-20T02:22:07;9.43;;;8.52;;
19205;SDS011;59358;52.134;5.596;2023-07-20T02:24:35;9.55;;;8.65;;
19205;SDS011;59358;52.134;5.596;2023-07-20T02:27:02;10.82;;;9.07;;
19205;SDS011;59358;52.134;5.596;2023-07-20T02:29:30;12.02;;;9.25;;
19205;SDS011;59358;52.134;5.596;2023-07-20T02:31:56;10.38;;;9.38;;
19205;SDS011;59358;52.134;5.596;2023-07-20T02:34:23;9.25;;;8.18;;
19205;SDS011;59358;52.134;5.596;2023-07-20T02:36:50;11.63;;;9.65;;
19205;SDS011;59358;52.134;5.596;2023-07-20T02:39:17;9.75;;;8.82;;
19205;SDS011;59358;52.134;5.596;2023-07-20T02:41:45;12.13;;;9.57;;
19205;SDS011;59358;52.134;5.596;2023-07-20T02:44:12;12.32;;;9.13;;
19205;SDS011;59358;52.134;5.596;2023-07-20T02:46:40;18.80;;;9.95;;
19205;SDS011;59358;52.134;5.596;2023-07-20T02:49:07;10.02;;;8.57;;
19205;SDS011;59358;52.134;5.596;2023-07-20T02:51:34;10.45;;;9.18;;
19205;SDS011;59358;52.134;5.596;2023-07-20T02:54:01;9.90;;;8.90;;
19205;SDS011;59358;52.134;5.596;2023-07-20T02:56:28;10.00;;;8.77;;
19205;SDS011;59358;52.134;5.596;2023-07-20T02:58:56;11.00;;;9.18;;
19205;SDS011;59358;52.134;5.596;2023-07-20T03:01:24;10.05;;;8.77;;
19205;SDS011;59358;52.134;5.596;2023-07-20T03:03:54;9.30;;;8.40;;
19205;SDS011;59358;52.134;5.596;2023-07-20T03:06:21;10.23;;;8.77;;
19205;SDS011;59358;52.134;5.596;2023-07-20T03:08:48;10.27;;;8.57;;
19205;SDS011;59358;52.134;5.596;2023-07-20T03:11:17;10.15;;;9.15;;
19205;SDS011;59358;52.134;5.596;2023-07-20T03:13:46;9.30;;;8.32;;
19205;SDS011;59358;52.134;5.596;2023-07-20T03:16:17;9.07;;;8.18;;
19205;SDS011;59358;52.134;5.596;2023-07-20T03:18:45;9.35;;;8.40;;
19205;SDS011;59358;52.134;5.596;2023-07-20T03:21:12;10.38;;;8.10;;
19205;SDS011;59358;52.134;5.596;2023-07-20T03:23:40;11.27;;;8.38;;
19205;SDS011;59358;52.134;5.596;2023-07-20T03:26:07;9.48;;;7.93;;
19205;SDS011;59358;52.134;5.596;2023-07-20T03:28:34;8.93;;;8.02;;
19205;SDS011;59358;52.134;5.596;2023-07-20T03:31:01;11.32;;;9.32;;
19205;SDS011;59358;52.134;5.596;2023-07-20T03:33:30;10.98;;;8.93;;
19205;SDS011;59358;52.134;5.596;2023-07-20T03:35:58;11.68;;;9.70;;
19205;SDS011;59358;52.134;5.596;2023-07-20T03:38:26;12.35;;;10.73;;
19205;SDS011;59358;52.134;5.596;2023-07-20T03:40:53;11.43;;;9.80;;
19205;SDS011;59358;52.134;5.596;2023-07-20T03:43:22;11.65;;;9.70;;
19205;SDS011;59358;52.134;5.596;2023-07-20T03:45:52;11.57;;;10.38;;
19205;SDS011;59358;52.134;5.596;2023-07-20T03:48:20;12.73;;;10.55;;
19205;SDS011;59358;52.134;5.596;2023-07-20T03:50:50;13.88;;;11.05;;
19205;SDS011;59358;52.134;5.596;2023-07-20T03:53:18;11.85;;;10.23;;
19205;SDS011;59358;52.134;5.596;2023-07-20T03:55:45;13.07;;;11.68;;
19205;SDS011;59358;52.134;5.596;2023-07-20T03:58:12;13.75;;;12.32;;
19205;SDS011;59358;52.134;5.596;2023-07-20T04:00:43;12.82;;;10.02;;
19205;SDS011;59358;52.134;5.596;2023-07-20T04:03:11;12.52;;;10.80;;
19205;SDS011;59358;52.134;5.596;2023-07-20T04:05:38;12.20;;;11.00;;
19205;SDS011;59358;52.134;5.596;2023-07-20T04:08:07;12.65;;;10.32;;
19205;SDS011;59358;52.134;5.596;2023-07-20T04:10:34;12.52;;;10.48;;
19205;SDS011;59358;52.134;5.596;2023-07-20T04:13:01;11.50;;;10.40;;
19205;SDS011;59358;52.134;5.596;2023-07-20T04:15:28;12.10;;;10.73;;
19205;SDS011;59358;52.134;5.596;2023-07-20T04:17:55;15.50;;;10.77;;
19205;SDS011;59358;52.134;5.596;2023-07-20T04:20:22;11.60;;;10.18;;
19205;SDS011;59358;52.134;5.596;2023-07-20T04:22:49;9.93;;;8.93;;
19205;SDS011;59358;52.134;5.596;2023-07-20T04:25:18;8.73;;;7.82;;
19205;SDS011;59358;52.134;5.596;2023-07-20T04:27:44;10.45;;;8.15;;
19205;SDS011;59358;52.134;5.596;2023-07-20T04:30:13;8.43;;;7.32;;
19205;SDS011;59358;52.134;5.596;2023-07-20T04:32:40;8.27;;;7.47;;
19205;SDS011;59358;52.134;5.596;2023-07-20T04:35:09;8.98;;;7.30;;
19205;SDS011;59358;52.134;5.596;2023-07-20T04:37:36;9.05;;;7.35;;
19205;SDS011;59358;52.134;5.596;2023-07-20T04:40:03;8.55;;;7.43;;
19205;SDS011;59358;52.134;5.596;2023-07-20T04:42:32;8.45;;;6.93;;
19205;SDS011;59358;52.134;5.596;2023-07-20T04:44:59;8.93;;;7.40;;
19205;SDS011;59358;52.134;5.596;2023-07-20T04:47:26;7.18;;;6.47;;
19205;SDS011;59358;52.134;5.596;2023-07-20T04:49:53;6.97;;;6.35;;
19205;SDS011;59358;52.134;5.596;2023-07-20T04:52:20;7.28;;;6.43;;
19205;SDS011;59358;52.134;5.596;2023-07-20T04:54:48;7.78;;;6.55;;
19205;SDS011;59358;52.134;5.596;2023-07-20T04:57:15;6.53;;;5.93;;
19205;SDS011;59358;52.134;5.596;2023-07-20T04:59:43;9.30;;;6.63;;
19205;SDS011;59358;52.134;5.596;2023-07-20T05:02:10;7.60;;;6.20;;
19205;SDS011;59358;52.134;5.596;2023-07-20T05:04:37;8.02;;;6.15;;
19205;SDS011;59358;52.134;5.596;2023-07-20T05:07:04;6.93;;;5.82;;
19205;SDS011;59358;52.134;5.596;2023-07-20T05:09:31;7.35;;;6.22;;
19205;SDS011;59358;52.134;5.596;2023-07-20T05:11:58;8.10;;;5.57;;
19205;SDS011;59358;52.134;5.596;2023-07-20T05:14:24;6.90;;;6.20;;
19205;SDS011;59358;52.134;5.596;2023-07-20T05:16:53;9.25;;;6.05;;
19205;SDS011;59358;52.134;5.596;2023-07-20T05:19:20;7.15;;;5.97;;
19205;SDS011;59358;52.134;5.596;2023-07-20T05:21:46;9.55;;;6.22;;
19205;SDS011;59358;52.134;5.596;2023-07-20T05:24:13;9.05;;;6.70;;
19205;SDS011;59358;52.134;5.596;2023-07-20T05:26:40;6.95;;;6.35;;
19205;SDS011;59358;52.134;5.596;2023-07-20T05:29:07;7.07;;;6.38;;
19205;SDS011;59358;52.134;5.596;2023-07-20T05:31:34;11.23;;;6.45;;
19205;SDS011;59358;52.134;5.596;2023-07-20T05:34:02;6.57;;;5.90;;
19205;SDS011;59358;52.134;5.596;2023-07-20T05:36:29;8.10;;;6.28;;
19205;SDS011;59358;52.134;5.596;2023-07-20T05:38:56;7.72;;;6.47;;
19205;SDS011;59358;52.134;5.596;2023-07-20T05:41:23;8.93;;;5.90;;
19205;SDS011;59358;52.134;5.596;2023-07-20T05:43:50;6.22;;;5.63;;
19205;SDS011;59358;52.134;5.596;2023-07-20T05:46:17;8.18;;;6.57;;
19205;SDS011;59358;52.134;5.596;2023-07-20T05:48:44;6.32;;;5.43;;
19205;SDS011;59358;52.134;5.596;2023-07-20T05:51:12;6.18;;;5.32;;
19205;SDS011;59358;52.134;5.596;2023-07-20T05:53:40;6.90;;;6.18;;
19205;SDS011;59358;52.134;5.596;2023-07-20T05:56:07;7.72;;;6.65;;
19205;SDS011;59358;52.134;5.596;2023-07-20T05:58:35;8.45;;;6.68;;
19205;SDS011;59358;52.134;5.596;2023-07-20T06:01:03;6.60;;;5.70;;
19205;SDS011;59358;52.134;5.596;2023-07-20T06:03:30;8.07;;;5.50;;
19205;SDS011;59358;52.134;5.596;2023-07-20T06:05:58;6.13;;;5.47;;
19205;SDS011;59358;52.134;5.596;2023-07-20T06:08:27;8.82;;;5.32;;
19205;SDS011;59358;52.134;5.596;2023-07-20T06:10:54;5.80;;;4.55;;
19205;SDS011;59358;52.134;5.596;2023-07-20T06:13:22;7.45;;;4.60;;
19205;SDS011;59358;52.134;5.596;2023-07-20T06:15:50;5.20;;;4.68;;
19205;SDS011;59358;52.134;5.596;2023-07-20T06:18:17;5.65;;;4.43;;
19205;SDS011;59358;52.134;5.596;2023-07-20T06:20:48;4.55;;;3.60;;
19205;SDS011;59358;52.134;5.596;2023-07-20T06:23:15;5.00;;;3.42;;
19205;SDS011;59358;52.134;5.596;2023-07-20T06:25:43;6.03;;;3.53;;
19205;SDS011;59358;52.134;5.596;2023-07-20T06:28:10;3.70;;;3.00;;
19205;SDS011;59358;52.134;5.596;2023-07-20T06:30:37;5.75;;;3.15;;
19205;SDS011;59358;52.134;5.596;2023-07-20T06:33:04;2.58;;;2.38;;
19205;SDS011;59358;52.134;5.596;2023-07-20T06:35:32;3.30;;;2.70;;
19205;SDS011;59358;52.134;5.596;2023-07-20T06:38:00;4.28;;;2.97;;
19205;SDS011;59358;52.134;5.596;2023-07-20T06:40:29;3.20;;;2.90;;
19205;SDS011;59358;52.134;5.596;2023-07-20T06:42:57;3.88;;;2.78;;
19205;SDS011;59358;52.134;5.596;2023-07-20T06:45:24;4.75;;;3.05;;
19205;SDS011;59358;52.134;5.596;2023-07-20T06:47:51;4.05;;;2.95;;
19205;SDS011;59358;52.134;5.596;2023-07-20T06:50:18;4.13;;;3.10;;
19205;SDS011;59358;52.134;5.596;2023-07-20T06:52:45;4.28;;;3.20;;
19205;SDS011;59358;52.134;5.596;2023-07-20T06:55:13;3.13;;;2.50;;
19205;SDS011;59358;52.134;5.596;2023-07-20T06:57:40;3.22;;;2.90;;
19205;SDS011;59358;52.134;5.596;2023-07-20T07:00:09;4.43;;;3.05;;
19205;SDS011;59358;52.134;5.596;2023-07-20T07:02:37;3.72;;;2.60;;
19205;SDS011;59358;52.134;5.596;2023-07-20T07:05:05;4.20;;;2.85;;
19205;SDS011;59358;52.134;5.596;2023-07-20T07:07:32;4.30;;;2.40;;
19205;SDS011;59358;52.134;5.596;2023-07-20T07:09:59;2.95;;;2.38;;
19205;SDS011;59358;52.134;5.596;2023-07-20T07:12:29;3.13;;;1.90;;
19205;SDS011;59358;52.134;5.596;2023-07-20T07:14:57;2.95;;;1.42;;
19205;SDS011;59358;52.134;5.596;2023-07-20T07:17:26;2.10;;;1.40;;
19205;SDS011;59358;52.134;5.596;2023-07-20T07:19:53;1.75;;;1.23;;
19205;SDS011;59358;52.134;5.596;2023-07-20T07:22:21;1.73;;;1.17;;
19205;SDS011;59358;52.134;5.596;2023-07-20T07:24:48;1.73;;;1.50;;
19205;SDS011;59358;52.134;5.596;2023-07-20T07:27:15;2.55;;;1.63;;
19205;SDS011;59358;52.134;5.596;2023-07-20T07:29:42;1.50;;;1.40;;
19205;SDS011;59358;52.134;5.596;2023-07-20T07:32:09;2.10;;;1.30;;
19205;SDS011;59358;52.134;5.596;2023-07-20T07:34:38;2.15;;;1.20;;
19205;SDS011;59358;52.134;5.596;2023-07-20T07:37:05;2.85;;;1.65;;
19205;SDS011;59358;52.134;5.596;2023-07-20T07:39:32;2.67;;;1.40;;
19205;SDS011;59358;52.134;5.596;2023-07-20T07:41:59;3.40;;;1.40;;
19205;SDS011;59358;52.134;5.596;2023-07-20T07:44:26;4.15;;;0.90;;
19205;SDS011;59358;52.134;5.596;2023-07-20T07:46:53;1.35;;;1.25;;
19205;SDS011;59358;52.134;5.596;2023-07-20T07:49:20;2.95;;;1.50;;
19205;SDS011;59358;52.134;5.596;2023-07-20T07:51:49;2.15;;;1.27;;
19205;SDS011;59358;52.134;5.596;2023-07-20T07:54:15;3.88;;;1.20;;
19205;SDS011;59358;52.134;5.596;2023-07-20T07:56:42;1.33;;;1.20;;
19205;SDS011;59358;52.134;5.596;2023-07-20T07:59:09;2.20;;;1.20;;
19205;SDS011;59358;52.134;5.596;2023-07-20T08:01:36;5.53;;;1.55;;
19205;SDS011;59358;52.134;5.596;2023-07-20T08:04:03;2.30;;;1.38;;
19205;SDS011;59358;52.134;5.596;2023-07-20T08:06:30;1.70;;;1.50;;
19205;SDS011;59358;52.134;5.596;2023-07-20T08:08:59;3.47;;;2.00;;
19205;SDS011;59358;52.134;5.596;2023-07-20T08:11:27;2.00;;;1.48;;
19205;SDS011;59358;52.134;5.596;2023-07-20T08:13:55;1.45;;;1.35;;
19205;SDS011;59358;52.134;5.596;2023-07-20T08:16:22;2.63;;;1.70;;
19205;SDS011;59358;52.134;5.596;2023-07-20T08:18:49;4.47;;;1.60;;
19205;SDS011;59358;52.134;5.596;2023-07-20T08:21:16;1.30;;;1.20;;
19205;SDS011;59358;52.134;5.596;2023-07-20T08:23:43;1.55;;;1.30;;
19205;SDS011;59358;52.134;5.596;2023-07-20T08:26:12;1.45;;;1.35;;
19205;SDS011;59358;52.134;5.596;2023-07-20T08:28:38;1.67;;;1.20;;
19205;SDS011;59358;52.134;5.596;2023-07-20T08:31:05;2.55;;;1.00;;
19205;SDS011;59358;52.134;5.596;2023-07-20T08:33:32;2.85;;;1.00;;
19205;SDS011;59358;52.134;5.596;2023-07-20T08:36:00;2.42;;;0.85;;
19205;SDS011;59358;52.134;5.596;2023-07-20T08:38:28;1.70;;;0.93;;
19205;SDS011;59358;52.134;5.596;2023-07-20T08:40:55;1.13;;;0.70;;
19205;SDS011;59358;52.134;5.596;2023-07-20T08:43:27;1.33;;;0.90;;
19205;SDS011;59358;52.134;5.596;2023-07-20T08:45:54;1.48;;;0.80;;
19205;SDS011;59358;52.134;5.596;2023-07-20T08:48:22;1.63;;;0.70;;
19205;SDS011;59358;52.134;5.596;2023-07-20T08:50:51;1.02;;;0.75;;
19205;SDS011;59358;52.134;5.596;2023-07-20T08:53:19;0.63;;;0.63;;
19205;SDS011;59358;52.134;5.596;2023-07-20T08:55:46;1.65;;;1.00;;
19205;SDS011;59358;52.134;5.596;2023-07-20T08:58:16;1.50;;;0.80;;
19205;SDS011;59358;52.134;5.596;2023-07-20T09:00:45;0.90;;;0.90;;
19205;SDS011;59358;52.134;5.596;2023-07-20T09:03:15;0.80;;;0.80;;
19205;SDS011;59358;52.134;5.596;2023-07-20T09:05:42;2.85;;;1.35;;
19205;SDS011;59358;52.134;5.596;2023-07-20T09:08:10;2.03;;;1.35;;
19205;SDS011;59358;52.134;5.596;2023-07-20T09:10:37;1.30;;;1.00;;
19205;SDS011;59358;52.134;5.596;2023-07-20T09:13:04;1.80;;;1.20;;
19205;SDS011;59358;52.134;5.596;2023-07-20T09:15:33;2.10;;;1.13;;
19205;SDS011;59358;52.134;5.596;2023-07-20T09:18:02;2.65;;;1.52;;
19205;SDS011;59358;52.134;5.596;2023-07-20T09:20:30;1.88;;;1.60;;
19205;SDS011;59358;52.134;5.596;2023-07-20T09:22:59;2.15;;;1.05;;
19205;SDS011;59358;52.134;5.596;2023-07-20T09:25:31;2.15;;;1.05;;
19205;SDS011;59358;52.134;5.596;2023-07-20T09:27:59;1.83;;;1.25;;
19205;SDS011;59358;52.134;5.596;2023-07-20T09:30:29;2.25;;;1.00;;
19205;SDS011;59358;52.134;5.596;2023-07-20T09:32:56;1.55;;;1.10;;
19205;SDS011;59358;52.134;5.596;2023-07-20T09:35:25;1.77;;;1.20;;
19205;SDS011;59358;52.134;5.596;2023-07-20T09:37:53;0.90;;;0.90;;
19205;SDS011;59358;52.134;5.596;2023-07-20T09:40:21;1.35;;;1.05;;
19205;SDS011;59358;52.134;5.596;2023-07-20T09:42:49;1.27;;;1.17;;
19205;SDS011;59358;52.134;5.596;2023-07-20T09:45:28;1.92;;;0.98;;
19205;SDS011;59358;52.134;5.596;2023-07-20T09:48:02;2.50;;;1.00;;
19205;SDS011;59358;52.134;5.596;2023-07-20T09:50:31;2.92;;;0.90;;
19205;SDS011;59358;52.134;5.596;2023-07-20T09:52:58;3.90;;;0.98;;
19205;SDS011;59358;52.134;5.596;2023-07-20T09:55:27;0.85;;;0.77;;
19205;SDS011;59358;52.134;5.596;2023-07-20T09:57:55;2.17;;;1.00;;
19205;SDS011;59358;52.134;5.596;2023-07-20T10:00:23;1.00;;;0.90;;
19205;SDS011;59358;52.134;5.596;2023-07-20T10:02:50;0.90;;;0.90;;
19205;SDS011;59358;52.134;5.596;2023-07-20T10:05:18;0.95;;;0.70;;
19205;SDS011;59358;52.134;5.596;2023-07-20T10:07:48;1.45;;;0.95;;
19205;SDS011;59358;52.134;5.596;2023-07-20T10:10:16;1.40;;;0.70;;
19205;SDS011;59358;52.134;5.596;2023-07-20T10:12:45;1.13;;;0.77;;
19205;SDS011;59358;52.134;5.596;2023-07-20T10:15:17;2.15;;;0.90;;
19205;SDS011;59358;52.134;5.596;2023-07-20T10:17:49;1.42;;;1.02;;
19205;SDS011;59358;52.134;5.596;2023-07-20T10:20:24;2.22;;;0.88;;
19205;SDS011;59358;52.134;5.596;2023-07-20T10:22:54;1.08;;;0.90;;
19205;SDS011;59358;52.134;5.596;2023-07-20T10:25:23;1.70;;;0.80;;
19205;SDS011;59358;52.134;5.596;2023-07-20T10:27:51;1.63;;;1.20;;
19205;SDS011;59358;52.134;5.596;2023-07-20T10:30:18;2.38;;;1.10;;
19205;SDS011;59358;52.134;5.596;2023-07-20T10:36:03;1.45;;;0.63;;
19205;SDS011;59358;52.134;5.596;2023-07-20T10:39:23;0.70;;;0.70;;
19205;SDS011;59358;52.134;5.596;2023-07-20T10:41:59;1.20;;;0.90;;
19205;SDS011;59358;52.134;5.596;2023-07-20T10:44:28;1.65;;;0.80;;
19205;SDS011;59358;52.134;5.596;2023-07-20T10:46:58;0.73;;;0.73;;
19205;SDS011;59358;52.134;5.596;2023-07-20T10:49:26;1.48;;;0.85;;
19205;SDS011;59358;52.134;5.596;2023-07-20T10:51:57;0.88;;;0.73;;
19205;SDS011;59358;52.134;5.596;2023-07-20T10:54:36;0.70;;;0.70;;
19205;SDS011;59358;52.134;5.596;2023-07-20T10:57:23;0.80;;;0.80;;
19205;SDS011;59358;52.134;5.596;2023-07-20T11:00:06;1.80;;;0.93;;
19205;SDS011;59358;52.134;5.596;2023-07-20T11:02:47;2.20;;;1.08;;
19205;SDS011;59358;52.134;5.596;2023-07-20T11:13:19;0.50;;;0.50;;
19205;SDS011;59358;52.134;5.596;2023-07-20T11:22:28;1.40;;;0.65;;
19205;SDS011;59358;52.134;5.596;2023-07-20T11:24:57;0.85;;;0.60;;
19205;SDS011;59358;52.134;5.596;2023-07-20T11:27:24;1.92;;;0.80;;
19205;SDS011;59358;52.134;5.596;2023-07-20T11:29:55;0.70;;;0.70;;
19205;SDS011;59358;52.134;5.596;2023-07-20T11:32:23;0.82;;;0.65;;
19205;SDS011;59358;52.134;5.596;2023-07-20T11:34:51;1.13;;;0.45;;
19205;SDS011;59358;52.134;5.596;2023-07-20T11:37:18;0.77;;;0.77;;
19205;SDS011;59358;52.134;5.596;2023-07-20T11:39:45;1.98;;;0.68;;
19205;SDS011;59358;52.134;5.596;2023-07-20T11:42:13;1.13;;;0.80;;
19205;SDS011;59358;52.134;5.596;2023-07-20T11:44:40;1.05;;;0.80;;
19205;SDS011;59358;52.134;5.596;2023-07-20T11:47:09;1.13;;;0.80;;
19205;SDS011;59358;52.134;5.596;2023-07-20T11:49:37;0.70;;;0.60;;
19205;SDS011;59358;52.134;5.596;2023-07-20T11:52:06;0.98;;;0.90;;
19205;SDS011;59358;52.134;5.596;2023-07-20T11:54:34;0.65;;;0.65;;
19205;SDS011;59358;52.134;5.596;2023-07-20T11:57:01;1.40;;;0.77;;
19205;SDS011;59358;52.134;5.596;2023-07-20T11:59:30;0.60;;;0.57;;
19205;SDS011;59358;52.134;5.596;2023-07-20T12:01:57;1.77;;;1.10;;
19205;SDS011;59358;52.134;5.596;2023-07-20T12:04:28;1.10;;;0.82;;
19205;SDS011;59358;52.134;5.596;2023-07-20T12:06:55;1.00;;;0.55;;
19205;SDS011;59358;52.134;5.596;2023-07-20T12:09:22;1.80;;;0.70;;
19205;SDS011;59358;52.134;5.596;2023-07-20T12:11:50;0.57;;;0.50;;
19205;SDS011;59358;52.134;5.596;2023-07-20T12:14:16;2.45;;;0.75;;
19205;SDS011;59358;52.134;5.596;2023-07-20T12:16:43;0.98;;;0.70;;
19205;SDS011;59358;52.134;5.596;2023-07-20T12:19:18;0.85;;;0.77;;
19205;SDS011;59358;52.134;5.596;2023-07-20T12:21:46;1.00;;;0.90;;
19205;SDS011;59358;52.134;5.596;2023-07-20T12:24:13;0.95;;;0.60;;
19205;SDS011;59358;52.134;5.596;2023-07-20T12:26:40;0.90;;;0.70;;
19205;SDS011;59358;52.134;5.596;2023-07-20T12:29:07;1.13;;;0.80;;
19205;SDS011;59358;52.134;5.596;2023-07-20T12:31:34;1.60;;;0.82;;
19205;SDS011;59358;52.134;5.596;2023-07-20T12:34:02;0.82;;;0.50;;
19205;SDS011;59358;52.134;5.596;2023-07-20T12:36:29;0.57;;;0.50;;
19205;SDS011;59358;52.134;5.596;2023-07-20T12:38:58;3.17;;;0.93;;
19205;SDS011;59358;52.134;5.596;2023-07-20T12:41:26;1.33;;;0.70;;
19205;SDS011;59358;52.134;5.596;2023-07-20T12:43:53;0.60;;;0.60;;
19205;SDS011;59358;52.134;5.596;2023-07-20T12:46:22;1.85;;;0.70;;
19205;SDS011;59358;52.134;5.596;2023-07-20T12:48:50;0.75;;;0.75;;
19205;SDS011;59358;52.134;5.596;2023-07-20T12:51:18;0.50;;;0.50;;
19205;SDS011;59358;52.134;5.596;2023-07-20T12:53:45;0.75;;;0.70;;
19205;SDS011;59358;52.134;5.596;2023-07-20T12:56:13;0.82;;;0.60;;
19205;SDS011;59358;52.134;5.596;2023-07-20T12:58:40;1.52;;;0.80;;
19205;SDS011;59358;52.134;5.596;2023-07-20T13:01:07;0.50;;;0.50;;
19205;SDS011;59358;52.134;5.596;2023-07-20T13:03:34;0.85;;;0.75;;
19205;SDS011;59358;52.134;5.596;2023-07-20T13:06:01;1.98;;;0.73;;
19205;SDS011;59358;52.134;5.596;2023-07-20T13:08:28;2.67;;;0.70;;
19205;SDS011;59358;52.134;5.596;2023-07-20T13:10:55;0.57;;;0.52;;
19205;SDS011;59358;52.134;5.596;2023-07-20T13:13:24;1.60;;;0.60;;
19205;SDS011;59358;52.134;5.596;2023-07-20T13:15:51;1.58;;;0.55;;
19205;SDS011;59358;52.134;5.596;2023-07-20T13:18:19;0.63;;;0.50;;
19205;SDS011;59358;52.134;5.596;2023-07-20T13:20:46;1.45;;;0.88;;
19205;SDS011;59358;52.134;5.596;2023-07-20T13:23:13;1.83;;;0.90;;
19205;SDS011;59358;52.134;5.596;2023-07-20T13:25:40;0.80;;;0.80;;
19205;SDS011;59358;52.134;5.596;2023-07-20T13:28:07;1.35;;;0.85;;
19205;SDS011;59358;52.134;5.596;2023-07-20T13:30:35;2.00;;;0.60;;
19205;SDS011;59358;52.134;5.596;2023-07-20T13:33:02;0.75;;;0.60;;
19205;SDS011;59358;52.134;5.596;2023-07-20T13:35:29;3.08;;;0.98;;
19205;SDS011;59358;52.134;5.596;2023-07-20T13:37:56;3.00;;;0.60;;
19205;SDS011;59358;52.134;5.596;2023-07-20T13:40:23;1.38;;;0.70;;
19205;SDS011;59358;52.134;5.596;2023-07-20T13:42:50;0.60;;;0.60;;
19205;SDS011;59358;52.134;5.596;2023-07-20T13:45:17;1.48;;;0.65;;
19205;SDS011;59358;52.134;5.596;2023-07-20T13:47:46;1.58;;;0.70;;
19205;SDS011;59358;52.134;5.596;2023-07-20T13:50:13;2.10;;;0.77;;
19205;SDS011;59358;52.134;5.596;2023-07-20T13:52:40;0.98;;;0.88;;
19205;SDS011;59358;52.134;5.596;2023-07-20T13:55:07;3.40;;;0.90;;
19205;SDS011;59358;52.134;5.596;2023-07-20T13:57:34;1.17;;;0.82;;
19205;SDS011;59358;52.134;5.596;2023-07-20T14:00:01;0.93;;;0.80;;
19205;SDS011;59358;52.134;5.596;2023-07-20T14:02:32;1.83;;;0.90;;
19205;SDS011;59358;52.134;5.596;2023-07-20T14:05:00;2.42;;;0.90;;
19205;SDS011;59358;52.134;5.596;2023-07-20T14:07:27;1.27;;;0.88;;
19205;SDS011;59358;52.134;5.596;2023-07-20T14:09:54;0.88;;;0.88;;
19205;SDS011;59358;52.134;5.596;2023-07-20T14:12:21;1.70;;;1.10;;
19205;SDS011;59358;52.134;5.596;2023-07-20T14:14:48;2.63;;;1.02;;
19205;SDS011;59358;52.134;5.596;2023-07-20T14:17:14;0.90;;;0.90;;
19205;SDS011;59358;52.134;5.596;2023-07-20T14:19:41;1.40;;;1.15;;
19205;SDS011;59358;52.134;5.596;2023-07-20T14:22:10;3.65;;;1.10;;
19205;SDS011;59358;52.134;5.596;2023-07-20T14:24:37;1.50;;;1.00;;
19205;SDS011;59358;52.134;5.596;2023-07-20T14:27:04;1.05;;;0.95;;
19205;SDS011;59358;52.134;5.596;2023-07-20T14:29:31;0.90;;;0.90;;
19205;SDS011;59358;52.134;5.596;2023-07-20T14:32:01;0.80;;;0.80;;
19205;SDS011;59358;52.134;5.596;2023-07-20T14:34:29;1.58;;;0.70;;
19205;SDS011;59358;52.134;5.596;2023-07-20T14:36:58;1.20;;;1.00;;
19205;SDS011;59358;52.134;5.596;2023-07-20T14:39:27;1.02;;;1.00;;
19205;SDS011;59358;52.134;5.596;2023-07-20T14:41:57;2.53;;;0.88;;
19205;SDS011;59358;52.134;5.596;2023-07-20T14:44:24;1.00;;;0.90;;
19205;SDS011;59358;52.134;5.596;2023-07-20T14:46:51;1.23;;;0.88;;
19205;SDS011;59358;52.134;5.596;2023-07-20T14:49:18;1.25;;;1.00;;
19205;SDS011;59358;52.134;5.596;2023-07-20T14:51:45;1.35;;;1.25;;
19205;SDS011;59358;52.134;5.596;2023-07-20T14:54:12;4.20;;;1.00;;
19205;SDS011;59358;52.134;5.596;2023-07-20T14:56:47;1.75;;;0.90;;
19205;SDS011;59358;52.134;5.596;2023-07-20T14:59:15;1.65;;;1.00;;
19205;SDS011;59358;52.134;5.596;2023-07-20T15:01:42;0.77;;;0.70;;
19205;SDS011;59358;52.134;5.596;2023-07-20T15:04:10;0.90;;;0.70;;
19205;SDS011;59358;52.134;5.596;2023-07-20T15:06:37;2.50;;;1.13;;
19205;SDS011;59358;52.134;5.596;2023-07-20T15:09:04;2.10;;;0.90;;
19205;SDS011;59358;52.134;5.596;2023-07-20T15:11:31;0.90;;;0.80;;